sensor_id;sensor_type;location;lat;lon;timestamp;P1;durP1;ratioP1;P2;durP2;ratioP2
15553;SDS011;7878;44.632;10.942;2022-12-07T00:01:33;52.03;;;31.83;;
15553;SDS011;7878;44.632;10.942;2022-12-07T00:04:01;55.90;;;33.00;;
15553;SDS011;7878;44.632;10.942;2022-12-07T00:06:38;51.43;;;32.10;;
15553;SDS011;7878;44.632;10.942;2022-12-07T00:09:07;52.70;;;32.27;;
15553;SDS011;7878;44.632;10.942;2022-12-07T00:11:36;54.50;;;31.87;;
15553;SDS011;7878;44.632;10.942;2022-12-07T00:14:03;50.37;;;32.90;;
15553;SDS011;7878;44.632;10.942;2022-12-07T00:16:32;49.37;;;30.77;;
15553;SDS011;7878;44.632;10.942;2022-12-07T00:18:59;51.93;;;32.97;;
15553;SDS011;7878;44.632;10.942;2022-12-07T00:21:25;52.00;;;30.87;;
15553;SDS011;7878;44.632;10.942;2022-12-07T00:23:53;45.27;;;31.10;;
15553;SDS011;7878;44.632;10.942;2022-12-07T00:26:20;51.60;;;33.13;;
15553;SDS011;7878;44.632;10.942;2022-12-07T00:28:48;50.37;;;31.27;;
15553;SDS011;7878;44.632;10.942;2022-12-07T00:31:23;48.20;;;29.03;;
15553;SDS011;7878;44.632;10.942;2022-12-07T00:33:51;46.20;;;30.77;;
15553;SDS011;7878;44.632;10.942;2022-12-07T00:36:18;48.80;;;30.77;;
15553;SDS011;7878;44.632;10.942;2022-12-07T00:38:45;47.83;;;31.17;;
15553;SDS011;7878;44.632;10.942;2022-12-07T00:41:12;42.70;;;28.63;;
15553;SDS011;7878;44.632;10.942;2022-12-07T00:43:43;47.67;;;28.73;;
15553;SDS011;7878;44.632;10.942;2022-12-07T00:46:11;46.00;;;29.77;;
15553;SDS011;7878;44.632;10.942;2022-12-07T00:48:37;40.07;;;27.73;;
15553;SDS011;7878;44.632;10.942;2022-12-07T00:51:03;44.50;;;28.27;;
15553;SDS011;7878;44.632;10.942;2022-12-07T00:53:30;43.23;;;29.33;;
15553;SDS011;7878;44.632;10.942;2022-12-07T00:55:56;42.53;;;28.53;;
15553;SDS011;7878;44.632;10.942;2022-12-07T00:58:22;43.37;;;29.17;;
15553;SDS011;7878;44.632;10.942;2022-12-07T01:00:48;44.10;;;27.53;;
15553;SDS011;7878;44.632;10.942;2022-12-07T01:03:15;41.73;;;27.53;;
15553;SDS011;7878;44.632;10.942;2022-12-07T01:05:51;46.40;;;28.10;;
15553;SDS011;7878;44.632;10.942;2022-12-07T01:08:18;38.70;;;27.33;;
15553;SDS011;7878;44.632;10.942;2022-12-07T01:10:45;39.00;;;27.30;;
15553;SDS011;7878;44.632;10.942;2022-12-07T01:13:11;46.27;;;29.43;;
15553;SDS011;7878;44.632;10.942;2022-12-07T01:15:40;46.90;;;30.97;;
15553;SDS011;7878;44.632;10.942;2022-12-07T01:18:07;42.10;;;29.43;;
15553;SDS011;7878;44.632;10.942;2022-12-07T01:20:33;36.53;;;26.80;;
15553;SDS011;7878;44.632;10.942;2022-12-07T01:22:59;37.73;;;25.90;;
15553;SDS011;7878;44.632;10.942;2022-12-07T01:25:25;38.70;;;27.47;;
15553;SDS011;7878;44.632;10.942;2022-12-07T01:27:51;36.13;;;26.20;;
15553;SDS011;7878;44.632;10.942;2022-12-07T01:30:16;36.53;;;27.43;;
15553;SDS011;7878;44.632;10.942;2022-12-07T01:32:42;34.73;;;26.80;;
15553;SDS011;7878;44.632;10.942;2022-12-07T01:35:08;41.57;;;28.33;;
15553;SDS011;7878;44.632;10.942;2022-12-07T01:37:37;41.37;;;29.23;;
15553;SDS011;7878;44.632;10.942;2022-12-07T01:40:04;41.23;;;27.10;;
15553;SDS011;7878;44.632;10.942;2022-12-07T01:42:32;41.57;;;27.97;;
15553;SDS011;7878;44.632;10.942;2022-12-07T01:47:42;42.37;;;29.63;;
15553;SDS011;7878;44.632;10.942;2022-12-07T01:50:13;42.93;;;28.73;;
15553;SDS011;7878;44.632;10.942;2022-12-07T01:52:39;39.47;;;27.33;;
15553;SDS011;7878;44.632;10.942;2022-12-07T01:55:10;47.47;;;29.63;;
15553;SDS011;7878;44.632;10.942;2022-12-07T01:57:40;48.87;;;30.53;;
15553;SDS011;7878;44.632;10.942;2022-12-07T02:00:11;49.37;;;31.30;;
15553;SDS011;7878;44.632;10.942;2022-12-07T02:02:39;45.57;;;31.63;;
15553;SDS011;7878;44.632;10.942;2022-12-07T02:05:23;57.43;;;32.20;;
15553;SDS011;7878;44.632;10.942;2022-12-07T02:07:50;54.67;;;33.03;;
15553;SDS011;7878;44.632;10.942;2022-12-07T02:12:46;54.03;;;32.93;;
15553;SDS011;7878;44.632;10.942;2022-12-07T02:15:15;53.20;;;33.03;;
15553;SDS011;7878;44.632;10.942;2022-12-07T02:20:21;49.43;;;29.13;;
15553;SDS011;7878;44.632;10.942;2022-12-07T02:29:17;47.50;;;28.40;;
15553;SDS011;7878;44.632;10.942;2022-12-07T02:31:36;48.63;;;28.63;;
15553;SDS011;7878;44.632;10.942;2022-12-07T02:34:11;53.00;;;28.50;;
15553;SDS011;7878;44.632;10.942;2022-12-07T02:36:45;47.30;;;28.27;;
15553;SDS011;7878;44.632;10.942;2022-12-07T02:39:25;55.40;;;28.67;;
15553;SDS011;7878;44.632;10.942;2022-12-07T02:42:06;47.37;;;27.47;;
15553;SDS011;7878;44.632;10.942;2022-12-07T02:44:38;52.97;;;28.13;;
15553;SDS011;7878;44.632;10.942;2022-12-07T02:47:05;48.83;;;29.43;;
15553;SDS011;7878;44.632;10.942;2022-12-07T02:49:34;49.23;;;28.03;;
15553;SDS011;7878;44.632;10.942;2022-12-07T02:52:03;46.70;;;27.77;;
15553;SDS011;7878;44.632;10.942;2022-12-07T02:54:29;47.23;;;28.33;;
15553;SDS011;7878;44.632;10.942;2022-12-07T03:02:52;47.67;;;28.13;;
15553;SDS011;7878;44.632;10.942;2022-12-07T03:13:33;48.60;;;28.27;;
15553;SDS011;7878;44.632;10.942;2022-12-07T03:15:50;49.57;;;27.53;;
15553;SDS011;7878;44.632;10.942;2022-12-07T03:18:18;48.13;;;28.67;;
15553;SDS011;7878;44.632;10.942;2022-12-07T03:20:48;50.77;;;28.40;;
15553;SDS011;7878;44.632;10.942;2022-12-07T03:23:16;56.57;;;29.27;;
15553;SDS011;7878;44.632;10.942;2022-12-07T03:25:45;51.23;;;29.03;;
15553;SDS011;7878;44.632;10.942;2022-12-07T03:28:16;48.57;;;27.93;;
15553;SDS011;7878;44.632;10.942;2022-12-07T03:33:46;52.63;;;30.67;;
15553;SDS011;7878;44.632;10.942;2022-12-07T03:36:32;61.17;;;31.60;;
15553;SDS011;7878;44.632;10.942;2022-12-07T03:39:17;64.93;;;31.40;;
15553;SDS011;7878;44.632;10.942;2022-12-07T03:41:50;55.43;;;30.90;;
15553;SDS011;7878;44.632;10.942;2022-12-07T03:44:17;57.43;;;31.50;;
15553;SDS011;7878;44.632;10.942;2022-12-07T03:47:31;65.13;;;33.67;;
15553;SDS011;7878;44.632;10.942;2022-12-07T03:49:48;69.47;;;34.27;;
15553;SDS011;7878;44.632;10.942;2022-12-07T03:52:24;64.07;;;33.63;;
15553;SDS011;7878;44.632;10.942;2022-12-07T03:57:47;65.97;;;34.37;;
15553;SDS011;7878;44.632;10.942;2022-12-07T04:00:16;71.57;;;35.87;;
15553;SDS011;7878;44.632;10.942;2022-12-07T04:02:43;65.23;;;34.17;;
15553;SDS011;7878;44.632;10.942;2022-12-07T04:05:09;68.17;;;34.90;;
15553;SDS011;7878;44.632;10.942;2022-12-07T04:07:35;69.17;;;34.77;;
15553;SDS011;7878;44.632;10.942;2022-12-07T04:10:01;58.77;;;33.93;;
15553;SDS011;7878;44.632;10.942;2022-12-07T04:12:27;69.20;;;35.47;;
15553;SDS011;7878;44.632;10.942;2022-12-07T04:14:53;62.67;;;33.40;;
15553;SDS011;7878;44.632;10.942;2022-12-07T04:17:19;59.43;;;33.20;;
15553;SDS011;7878;44.632;10.942;2022-12-07T04:19:44;61.23;;;33.90;;
15553;SDS011;7878;44.632;10.942;2022-12-07T04:22:10;60.47;;;31.63;;
15553;SDS011;7878;44.632;10.942;2022-12-07T04:24:36;51.27;;;30.73;;
15553;SDS011;7878;44.632;10.942;2022-12-07T04:27:01;50.63;;;31.17;;
15553;SDS011;7878;44.632;10.942;2022-12-07T04:29:27;49.40;;;30.03;;
15553;SDS011;7878;44.632;10.942;2022-12-07T04:31:53;50.53;;;29.07;;
15553;SDS011;7878;44.632;10.942;2022-12-07T04:34:19;44.17;;;29.20;;
15553;SDS011;7878;44.632;10.942;2022-12-07T04:36:45;45.70;;;29.57;;
15553;SDS011;7878;44.632;10.942;2022-12-07T04:41:48;47.37;;;28.77;;
15553;SDS011;7878;44.632;10.942;2022-12-07T04:44:15;45.63;;;29.10;;
15553;SDS011;7878;44.632;10.942;2022-12-07T04:46:41;42.80;;;28.67;;
15553;SDS011;7878;44.632;10.942;2022-12-07T04:49:07;44.17;;;27.83;;
15553;SDS011;7878;44.632;10.942;2022-12-07T04:51:33;40.93;;;27.13;;
15553;SDS011;7878;44.632;10.942;2022-12-07T04:53:59;46.00;;;27.10;;
15553;SDS011;7878;44.632;10.942;2022-12-07T04:56:25;50.93;;;28.50;;
15553;SDS011;7878;44.632;10.942;2022-12-07T04:58:51;44.97;;;28.97;;
15553;SDS011;7878;44.632;10.942;2022-12-07T05:01:18;46.07;;;28.47;;
15553;SDS011;7878;44.632;10.942;2022-12-07T05:03:44;47.17;;;28.90;;
15553;SDS011;7878;44.632;10.942;2022-12-07T05:06:10;45.53;;;28.00;;
15553;SDS011;7878;44.632;10.942;2022-12-07T05:08:37;46.70;;;28.43;;
15553;SDS011;7878;44.632;10.942;2022-12-07T05:11:03;40.23;;;26.20;;
15553;SDS011;7878;44.632;10.942;2022-12-07T05:13:29;46.10;;;28.47;;
15553;SDS011;7878;44.632;10.942;2022-12-07T05:15:55;43.93;;;26.57;;
15553;SDS011;7878;44.632;10.942;2022-12-07T05:18:21;42.23;;;27.80;;
15553;SDS011;7878;44.632;10.942;2022-12-07T05:20:47;43.97;;;28.80;;
15553;SDS011;7878;44.632;10.942;2022-12-07T05:23:12;41.87;;;26.70;;
15553;SDS011;7878;44.632;10.942;2022-12-07T05:25:38;40.80;;;26.57;;
15553;SDS011;7878;44.632;10.942;2022-12-07T05:28:04;39.43;;;26.30;;
15553;SDS011;7878;44.632;10.942;2022-12-07T05:30:30;44.20;;;27.50;;
15553;SDS011;7878;44.632;10.942;2022-12-07T05:32:57;41.60;;;27.10;;
15553;SDS011;7878;44.632;10.942;2022-12-07T05:35:24;40.37;;;27.80;;
15553;SDS011;7878;44.632;10.942;2022-12-07T05:37:49;49.53;;;27.37;;
15553;SDS011;7878;44.632;10.942;2022-12-07T05:40:15;40.87;;;26.50;;
15553;SDS011;7878;44.632;10.942;2022-12-07T05:42:41;41.73;;;27.53;;
15553;SDS011;7878;44.632;10.942;2022-12-07T05:45:08;38.87;;;25.87;;
15553;SDS011;7878;44.632;10.942;2022-12-07T05:47:34;39.90;;;26.90;;
15553;SDS011;7878;44.632;10.942;2022-12-07T05:50:00;47.70;;;28.33;;
15553;SDS011;7878;44.632;10.942;2022-12-07T05:52:26;47.10;;;27.77;;
15553;SDS011;7878;44.632;10.942;2022-12-07T05:54:52;46.33;;;27.37;;
15553;SDS011;7878;44.632;10.942;2022-12-07T05:57:18;44.57;;;28.13;;
15553;SDS011;7878;44.632;10.942;2022-12-07T05:59:44;43.23;;;27.67;;
15553;SDS011;7878;44.632;10.942;2022-12-07T06:02:11;43.90;;;26.83;;
15553;SDS011;7878;44.632;10.942;2022-12-07T06:04:40;40.30;;;26.10;;
15553;SDS011;7878;44.632;10.942;2022-12-07T06:07:07;40.53;;;26.60;;
15553;SDS011;7878;44.632;10.942;2022-12-07T06:09:33;41.43;;;26.93;;
15553;SDS011;7878;44.632;10.942;2022-12-07T06:12:00;43.00;;;25.47;;
15553;SDS011;7878;44.632;10.942;2022-12-07T06:14:44;37.03;;;24.87;;
15553;SDS011;7878;44.632;10.942;2022-12-07T06:17:10;36.00;;;25.20;;
15553;SDS011;7878;44.632;10.942;2022-12-07T06:19:37;37.60;;;25.30;;
15553;SDS011;7878;44.632;10.942;2022-12-07T06:22:03;35.17;;;23.53;;
15553;SDS011;7878;44.632;10.942;2022-12-07T06:24:30;33.70;;;23.10;;
15553;SDS011;7878;44.632;10.942;2022-12-07T06:26:57;29.50;;;20.97;;
15553;SDS011;7878;44.632;10.942;2022-12-07T06:29:23;34.53;;;23.13;;
15553;SDS011;7878;44.632;10.942;2022-12-07T06:31:49;38.27;;;21.87;;
15553;SDS011;7878;44.632;10.942;2022-12-07T06:34:16;32.13;;;22.07;;
15553;SDS011;7878;44.632;10.942;2022-12-07T06:36:42;34.93;;;22.33;;
15553;SDS011;7878;44.632;10.942;2022-12-07T06:39:09;30.77;;;22.20;;
15553;SDS011;7878;44.632;10.942;2022-12-07T06:41:35;34.47;;;22.03;;
15553;SDS011;7878;44.632;10.942;2022-12-07T06:44:02;38.60;;;21.90;;
15553;SDS011;7878;44.632;10.942;2022-12-07T06:46:28;36.33;;;21.60;;
15553;SDS011;7878;44.632;10.942;2022-12-07T06:48:54;37.17;;;21.77;;
15553;SDS011;7878;44.632;10.942;2022-12-07T06:51:20;32.93;;;22.40;;
15553;SDS011;7878;44.632;10.942;2022-12-07T06:53:45;36.23;;;20.80;;
15553;SDS011;7878;44.632;10.942;2022-12-07T06:56:11;31.43;;;21.07;;
15553;SDS011;7878;44.632;10.942;2022-12-07T06:58:37;31.77;;;20.00;;
15553;SDS011;7878;44.632;10.942;2022-12-07T07:01:08;30.13;;;19.57;;
15553;SDS011;7878;44.632;10.942;2022-12-07T07:03:37;31.43;;;20.07;;
15553;SDS011;7878;44.632;10.942;2022-12-07T07:06:03;29.20;;;19.63;;
15553;SDS011;7878;44.632;10.942;2022-12-07T07:08:30;33.27;;;19.67;;
15553;SDS011;7878;44.632;10.942;2022-12-07T07:10:55;29.13;;;19.83;;
15553;SDS011;7878;44.632;10.942;2022-12-07T07:13:21;35.97;;;20.43;;
15553;SDS011;7878;44.632;10.942;2022-12-07T07:15:47;30.43;;;18.80;;
15553;SDS011;7878;44.632;10.942;2022-12-07T07:18:13;36.07;;;20.27;;
15553;SDS011;7878;44.632;10.942;2022-12-07T07:20:38;39.03;;;21.43;;
15553;SDS011;7878;44.632;10.942;2022-12-07T07:23:04;33.80;;;21.93;;
15553;SDS011;7878;44.632;10.942;2022-12-07T07:25:31;34.40;;;19.43;;
15553;SDS011;7878;44.632;10.942;2022-12-07T07:27:57;32.17;;;20.73;;
15553;SDS011;7878;44.632;10.942;2022-12-07T07:30:23;39.10;;;21.10;;
15553;SDS011;7878;44.632;10.942;2022-12-07T07:32:48;30.67;;;20.67;;
15553;SDS011;7878;44.632;10.942;2022-12-07T07:35:14;32.43;;;22.00;;
15553;SDS011;7878;44.632;10.942;2022-12-07T07:37:40;34.33;;;22.43;;
15553;SDS011;7878;44.632;10.942;2022-12-07T07:40:06;38.43;;;23.63;;
15553;SDS011;7878;44.632;10.942;2022-12-07T07:42:33;41.60;;;26.10;;
15553;SDS011;7878;44.632;10.942;2022-12-07T07:44:59;38.30;;;25.57;;
15553;SDS011;7878;44.632;10.942;2022-12-07T07:47:24;40.10;;;26.13;;
15553;SDS011;7878;44.632;10.942;2022-12-07T07:49:50;36.40;;;25.83;;
15553;SDS011;7878;44.632;10.942;2022-12-07T07:52:15;41.23;;;27.57;;
15553;SDS011;7878;44.632;10.942;2022-12-07T07:54:41;39.47;;;27.00;;
15553;SDS011;7878;44.632;10.942;2022-12-07T07:57:07;43.53;;;27.63;;
15553;SDS011;7878;44.632;10.942;2022-12-07T07:59:32;42.60;;;27.07;;
15553;SDS011;7878;44.632;10.942;2022-12-07T08:01:58;38.83;;;26.53;;
15553;SDS011;7878;44.632;10.942;2022-12-07T08:04:24;39.33;;;27.93;;
15553;SDS011;7878;44.632;10.942;2022-12-07T08:06:49;38.17;;;26.47;;
15553;SDS011;7878;44.632;10.942;2022-12-07T08:09:15;38.97;;;26.00;;
15553;SDS011;7878;44.632;10.942;2022-12-07T08:11:41;41.33;;;27.07;;
15553;SDS011;7878;44.632;10.942;2022-12-07T08:14:06;40.70;;;27.73;;
15553;SDS011;7878;44.632;10.942;2022-12-07T08:16:32;36.27;;;27.40;;
15553;SDS011;7878;44.632;10.942;2022-12-07T08:18:58;34.03;;;25.70;;
15553;SDS011;7878;44.632;10.942;2022-12-07T08:21:23;33.77;;;24.77;;
15553;SDS011;7878;44.632;10.942;2022-12-07T08:23:49;36.50;;;25.87;;
15553;SDS011;7878;44.632;10.942;2022-12-07T08:26:15;33.20;;;24.80;;
15553;SDS011;7878;44.632;10.942;2022-12-07T08:28:41;35.97;;;25.97;;
15553;SDS011;7878;44.632;10.942;2022-12-07T08:31:15;39.23;;;26.57;;
15553;SDS011;7878;44.632;10.942;2022-12-07T08:33:44;36.70;;;27.23;;
15553;SDS011;7878;44.632;10.942;2022-12-07T08:36:11;37.17;;;26.53;;
15553;SDS011;7878;44.632;10.942;2022-12-07T08:38:38;39.30;;;27.33;;
15553;SDS011;7878;44.632;10.942;2022-12-07T08:41:05;43.60;;;29.17;;
15553;SDS011;7878;44.632;10.942;2022-12-07T08:43:32;40.93;;;28.60;;
15553;SDS011;7878;44.632;10.942;2022-12-07T08:51:19;40.73;;;28.03;;
15553;SDS011;7878;44.632;10.942;2022-12-07T08:53:46;40.07;;;28.60;;
15553;SDS011;7878;44.632;10.942;2022-12-07T08:56:13;42.53;;;28.40;;
15553;SDS011;7878;44.632;10.942;2022-12-07T08:58:39;42.00;;;27.80;;
15553;SDS011;7878;44.632;10.942;2022-12-07T09:01:05;40.07;;;27.53;;
15553;SDS011;7878;44.632;10.942;2022-12-07T09:03:31;38.40;;;28.03;;
15553;SDS011;7878;44.632;10.942;2022-12-07T09:05:57;38.90;;;26.40;;
15553;SDS011;7878;44.632;10.942;2022-12-07T09:08:25;41.03;;;28.30;;
15553;SDS011;7878;44.632;10.942;2022-12-07T09:10:55;38.17;;;26.80;;
15553;SDS011;7878;44.632;10.942;2022-12-07T09:13:20;45.10;;;31.07;;
15553;SDS011;7878;44.632;10.942;2022-12-07T09:15:46;41.27;;;26.70;;
15553;SDS011;7878;44.632;10.942;2022-12-07T09:18:11;35.23;;;26.57;;
15553;SDS011;7878;44.632;10.942;2022-12-07T09:20:37;41.33;;;28.60;;
15553;SDS011;7878;44.632;10.942;2022-12-07T09:23:05;40.27;;;28.30;;
15553;SDS011;7878;44.632;10.942;2022-12-07T09:25:31;37.60;;;27.10;;
15553;SDS011;7878;44.632;10.942;2022-12-07T09:27:57;35.40;;;26.63;;
15553;SDS011;7878;44.632;10.942;2022-12-07T09:30:23;39.53;;;26.67;;
15553;SDS011;7878;44.632;10.942;2022-12-07T09:32:52;40.07;;;28.40;;
15553;SDS011;7878;44.632;10.942;2022-12-07T09:35:18;36.63;;;26.30;;
15553;SDS011;7878;44.632;10.942;2022-12-07T09:37:44;39.80;;;28.33;;
15553;SDS011;7878;44.632;10.942;2022-12-07T09:40:10;38.77;;;27.13;;
15553;SDS011;7878;44.632;10.942;2022-12-07T09:42:38;46.93;;;31.53;;
15553;SDS011;7878;44.632;10.942;2022-12-07T09:45:11;42.57;;;28.63;;
15553;SDS011;7878;44.632;10.942;2022-12-07T09:47:49;35.53;;;26.67;;
15553;SDS011;7878;44.632;10.942;2022-12-07T09:50:24;41.13;;;26.70;;
15553;SDS011;7878;44.632;10.942;2022-12-07T09:52:52;39.50;;;27.67;;
15553;SDS011;7878;44.632;10.942;2022-12-07T09:55:22;40.70;;;28.30;;
15553;SDS011;7878;44.632;10.942;2022-12-07T09:57:52;46.83;;;27.10;;
15553;SDS011;7878;44.632;10.942;2022-12-07T10:00:20;35.60;;;26.00;;
15553;SDS011;7878;44.632;10.942;2022-12-07T10:02:51;40.63;;;27.50;;
15553;SDS011;7878;44.632;10.942;2022-12-07T10:05:21;42.40;;;27.43;;
15553;SDS011;7878;44.632;10.942;2022-12-07T10:07:50;40.07;;;28.37;;
15553;SDS011;7878;44.632;10.942;2022-12-07T10:10:23;42.13;;;26.53;;
15553;SDS011;7878;44.632;10.942;2022-12-07T10:12:58;37.13;;;26.97;;
15553;SDS011;7878;44.632;10.942;2022-12-07T10:18:18;35.90;;;25.93;;
15553;SDS011;7878;44.632;10.942;2022-12-07T10:21:10;38.47;;;26.67;;
15553;SDS011;7878;44.632;10.942;2022-12-07T10:23:42;38.63;;;26.37;;
15553;SDS011;7878;44.632;10.942;2022-12-07T10:32:21;41.77;;;26.33;;
15553;SDS011;7878;44.632;10.942;2022-12-07T10:37:48;32.33;;;25.67;;
15553;SDS011;7878;44.632;10.942;2022-12-07T10:40:28;34.97;;;25.77;;
15553;SDS011;7878;44.632;10.942;2022-12-07T10:43:00;35.67;;;26.27;;
15553;SDS011;7878;44.632;10.942;2022-12-07T10:45:30;39.93;;;24.77;;
15553;SDS011;7878;44.632;10.942;2022-12-07T10:48:16;31.30;;;23.87;;
15553;SDS011;7878;44.632;10.942;2022-12-07T10:51:12;34.13;;;24.77;;
15553;SDS011;7878;44.632;10.942;2022-12-07T11:01:42;43.67;;;28.83;;
15553;SDS011;7878;44.632;10.942;2022-12-07T11:15:42;45.07;;;30.60;;
15553;SDS011;7878;44.632;10.942;2022-12-07T11:18:27;38.60;;;25.80;;
15553;SDS011;7878;44.632;10.942;2022-12-07T11:24:08;32.07;;;24.27;;
15553;SDS011;7878;44.632;10.942;2022-12-07T11:36:52;28.70;;;22.00;;
15553;SDS011;7878;44.632;10.942;2022-12-07T11:41:47;26.65;;;22.90;;
15553;SDS011;7878;44.632;10.942;2022-12-07T11:50:01;26.08;;;22.58;;
15553;SDS011;7878;44.632;10.942;2022-12-07T11:52:43;26.33;;;23.38;;
15553;SDS011;7878;44.632;10.942;2022-12-07T11:55:18;33.05;;;24.17;;
15553;SDS011;7878;44.632;10.942;2022-12-07T11:58:04;24.52;;;21.83;;
15553;SDS011;7878;44.632;10.942;2022-12-07T12:00:37;26.10;;;23.20;;
15553;SDS011;7878;44.632;10.942;2022-12-07T12:03:08;27.83;;;24.40;;
15553;SDS011;7878;44.632;10.942;2022-12-07T12:05:40;44.85;;;37.05;;
15553;SDS011;7878;44.632;10.942;2022-12-07T12:08:13;30.70;;;23.40;;
15553;SDS011;7878;44.632;10.942;2022-12-07T12:13:36;29.67;;;23.58;;
15553;SDS011;7878;44.632;10.942;2022-12-07T12:16:46;29.05;;;22.95;;
15553;SDS011;7878;44.632;10.942;2022-12-07T12:19:24;25.63;;;20.47;;
15553;SDS011;7878;44.632;10.942;2022-12-07T12:21:57;25.63;;;20.57;;
15553;SDS011;7878;44.632;10.942;2022-12-07T12:24:37;23.03;;;18.70;;
15553;SDS011;7878;44.632;10.942;2022-12-07T12:27:06;22.57;;;19.73;;
15553;SDS011;7878;44.632;10.942;2022-12-07T12:29:50;27.53;;;18.80;;
15553;SDS011;7878;44.632;10.942;2022-12-07T12:32:23;26.75;;;19.85;;
15553;SDS011;7878;44.632;10.942;2022-12-07T12:45:18;29.38;;;20.80;;
15553;SDS011;7878;44.632;10.942;2022-12-07T12:50:30;26.55;;;21.33;;
15553;SDS011;7878;44.632;10.942;2022-12-07T12:58:21;25.77;;;21.27;;
15553;SDS011;7878;44.632;10.942;2022-12-07T13:03:54;28.90;;;20.20;;
15553;SDS011;7878;44.632;10.942;2022-12-07T13:08:49;26.90;;;20.80;;
15553;SDS011;7878;44.632;10.942;2022-12-07T13:11:18;27.17;;;22.20;;
15553;SDS011;7878;44.632;10.942;2022-12-07T13:17:08;29.23;;;20.83;;
15553;SDS011;7878;44.632;10.942;2022-12-07T13:19:54;26.47;;;20.33;;
15553;SDS011;7878;44.632;10.942;2022-12-07T13:28:01;33.03;;;22.13;;
15553;SDS011;7878;44.632;10.942;2022-12-07T13:30:38;25.67;;;20.47;;
15553;SDS011;7878;44.632;10.942;2022-12-07T13:33:14;27.77;;;21.70;;
15553;SDS011;7878;44.632;10.942;2022-12-07T13:35:42;31.13;;;22.63;;
15553;SDS011;7878;44.632;10.942;2022-12-07T13:41:10;24.97;;;20.90;;
15553;SDS011;7878;44.632;10.942;2022-12-07T13:46:32;27.87;;;20.73;;
15553;SDS011;7878;44.632;10.942;2022-12-07T13:49:27;29.30;;;21.97;;
15553;SDS011;7878;44.632;10.942;2022-12-07T13:51:55;25.83;;;21.53;;
15553;SDS011;7878;44.632;10.942;2022-12-07T13:57:20;24.17;;;21.23;;
15553;SDS011;7878;44.632;10.942;2022-12-07T13:59:47;26.57;;;21.73;;
15553;SDS011;7878;44.632;10.942;2022-12-07T14:02:20;32.43;;;21.40;;
15553;SDS011;7878;44.632;10.942;2022-12-07T14:04:50;26.70;;;20.60;;
15553;SDS011;7878;44.632;10.942;2022-12-07T14:09:59;28.77;;;20.37;;
15553;SDS011;7878;44.632;10.942;2022-12-07T14:12:28;24.13;;;19.73;;
15553;SDS011;7878;44.632;10.942;2022-12-07T14:14:55;28.00;;;20.70;;
15553;SDS011;7878;44.632;10.942;2022-12-07T14:17:22;30.07;;;21.60;;
15553;SDS011;7878;44.632;10.942;2022-12-07T14:19:52;27.57;;;20.37;;
15553;SDS011;7878;44.632;10.942;2022-12-07T14:24:57;27.83;;;20.43;;
15553;SDS011;7878;44.632;10.942;2022-12-07T14:27:24;29.03;;;21.43;;
15553;SDS011;7878;44.632;10.942;2022-12-07T14:29:55;29.70;;;20.27;;
15553;SDS011;7878;44.632;10.942;2022-12-07T14:37:23;24.63;;;19.87;;
15553;SDS011;7878;44.632;10.942;2022-12-07T14:39:49;28.87;;;21.23;;
15553;SDS011;7878;44.632;10.942;2022-12-07T14:42:15;25.07;;;20.10;;
15553;SDS011;7878;44.632;10.942;2022-12-07T14:44:41;28.30;;;20.43;;
15553;SDS011;7878;44.632;10.942;2022-12-07T14:47:09;28.43;;;20.23;;
15553;SDS011;7878;44.632;10.942;2022-12-07T14:49:35;35.30;;;21.37;;
15553;SDS011;7878;44.632;10.942;2022-12-07T14:52:01;30.30;;;21.03;;
15553;SDS011;7878;44.632;10.942;2022-12-07T14:54:27;36.30;;;20.80;;
15553;SDS011;7878;44.632;10.942;2022-12-07T14:56:56;26.10;;;19.57;;
15553;SDS011;7878;44.632;10.942;2022-12-07T14:59:22;24.97;;;19.43;;
15553;SDS011;7878;44.632;10.942;2022-12-07T15:01:47;27.37;;;20.40;;
15553;SDS011;7878;44.632;10.942;2022-12-07T15:04:13;26.37;;;20.47;;
15553;SDS011;7878;44.632;10.942;2022-12-07T15:06:38;32.57;;;21.37;;
15553;SDS011;7878;44.632;10.942;2022-12-07T15:09:05;32.17;;;20.97;;
15553;SDS011;7878;44.632;10.942;2022-12-07T15:11:30;29.83;;;20.77;;
15553;SDS011;7878;44.632;10.942;2022-12-07T15:13:57;29.30;;;20.50;;
15553;SDS011;7878;44.632;10.942;2022-12-07T15:16:36;29.97;;;21.83;;
15553;SDS011;7878;44.632;10.942;2022-12-07T15:19:04;29.67;;;21.67;;
15553;SDS011;7878;44.632;10.942;2022-12-07T15:21:30;30.60;;;20.63;;
15553;SDS011;7878;44.632;10.942;2022-12-07T15:23:56;31.30;;;21.03;;
15553;SDS011;7878;44.632;10.942;2022-12-07T15:26:22;26.53;;;20.50;;
15553;SDS011;7878;44.632;10.942;2022-12-07T15:28:47;23.73;;;19.87;;
15553;SDS011;7878;44.632;10.942;2022-12-07T15:31:13;31.73;;;21.17;;
15553;SDS011;7878;44.632;10.942;2022-12-07T15:33:40;29.43;;;20.63;;
15553;SDS011;7878;44.632;10.942;2022-12-07T15:36:07;26.63;;;19.33;;
15553;SDS011;7878;44.632;10.942;2022-12-07T15:38:32;27.33;;;19.97;;
15553;SDS011;7878;44.632;10.942;2022-12-07T15:40:58;32.43;;;21.17;;
15553;SDS011;7878;44.632;10.942;2022-12-07T15:43:24;30.40;;;20.37;;
15553;SDS011;7878;44.632;10.942;2022-12-07T15:46:08;31.00;;;21.23;;
15553;SDS011;7878;44.632;10.942;2022-12-07T15:48:34;27.70;;;20.97;;
15553;SDS011;7878;44.632;10.942;2022-12-07T15:51:05;26.43;;;19.70;;
15553;SDS011;7878;44.632;10.942;2022-12-07T15:53:32;25.67;;;20.17;;
15553;SDS011;7878;44.632;10.942;2022-12-07T15:55:59;28.63;;;19.77;;
15553;SDS011;7878;44.632;10.942;2022-12-07T15:58:25;25.67;;;18.03;;
15553;SDS011;7878;44.632;10.942;2022-12-07T16:00:51;23.80;;;18.30;;
15553;SDS011;7878;44.632;10.942;2022-12-07T16:03:16;24.33;;;17.60;;
15553;SDS011;7878;44.632;10.942;2022-12-07T16:05:48;22.67;;;18.17;;
15553;SDS011;7878;44.632;10.942;2022-12-07T16:08:17;20.20;;;16.47;;
15553;SDS011;7878;44.632;10.942;2022-12-07T16:10:43;24.50;;;17.47;;
15553;SDS011;7878;44.632;10.942;2022-12-07T16:13:09;22.13;;;17.00;;
15553;SDS011;7878;44.632;10.942;2022-12-07T16:15:41;24.10;;;17.07;;
15553;SDS011;7878;44.632;10.942;2022-12-07T16:18:07;29.03;;;18.43;;
15553;SDS011;7878;44.632;10.942;2022-12-07T16:20:33;24.77;;;17.63;;
15553;SDS011;7878;44.632;10.942;2022-12-07T16:22:59;26.07;;;17.53;;
15553;SDS011;7878;44.632;10.942;2022-12-07T16:25:25;21.70;;;17.13;;
15553;SDS011;7878;44.632;10.942;2022-12-07T16:27:51;21.97;;;17.30;;
15553;SDS011;7878;44.632;10.942;2022-12-07T16:30:17;22.70;;;17.83;;
15553;SDS011;7878;44.632;10.942;2022-12-07T16:32:44;24.07;;;17.50;;
15553;SDS011;7878;44.632;10.942;2022-12-07T16:35:09;24.87;;;17.17;;
15553;SDS011;7878;44.632;10.942;2022-12-07T16:37:36;21.00;;;16.27;;
15553;SDS011;7878;44.632;10.942;2022-12-07T16:40:02;20.20;;;16.90;;
15553;SDS011;7878;44.632;10.942;2022-12-07T16:42:32;24.83;;;17.70;;
15553;SDS011;7878;44.632;10.942;2022-12-07T16:44:58;24.50;;;18.47;;
15553;SDS011;7878;44.632;10.942;2022-12-07T16:47:24;23.47;;;18.27;;
15553;SDS011;7878;44.632;10.942;2022-12-07T16:49:49;23.50;;;18.27;;
15553;SDS011;7878;44.632;10.942;2022-12-07T16:52:17;23.37;;;17.47;;
15553;SDS011;7878;44.632;10.942;2022-12-07T16:54:43;30.23;;;18.67;;
15553;SDS011;7878;44.632;10.942;2022-12-07T16:57:09;29.77;;;18.87;;
15553;SDS011;7878;44.632;10.942;2022-12-07T16:59:35;25.03;;;18.20;;